sensor_id;sensor_type;location;lat;lon;timestamp;P1;durP1;ratioP1;P2;durP2;ratioP2
26034;SDS011;13809;48.632;11.576;2023-12-20T00:01:45;2.93;;;2.73;;
26034;SDS011;13809;48.632;11.576;2023-12-20T00:06:48;3.30;;;2.80;;
26034;SDS011;13809;48.632;11.576;2023-12-20T00:11:51;2.80;;;2.60;;
26034;SDS011;13809;48.632;11.576;2023-12-20T00:16:56;3.10;;;2.90;;
26034;SDS011;13809;48.632;11.576;2023-12-20T00:21:59;3.20;;;2.70;;
26034;SDS011;13809;48.632;11.576;2023-12-20T00:27:03;2.70;;;2.50;;
26034;SDS011;13809;48.632;11.576;2023-12-20T00:32:08;3.40;;;2.60;;
26034;SDS011;13809;48.632;11.576;2023-12-20T00:37:11;2.80;;;2.20;;
26034;SDS011;13809;48.632;11.576;2023-12-20T00:42:15;2.43;;;2.23;;
26034;SDS011;13809;48.632;11.576;2023-12-20T00:47:20;2.53;;;2.33;;
26034;SDS011;13809;48.632;11.576;2023-12-20T00:52:23;2.30;;;2.10;;
26034;SDS011;13809;48.632;11.576;2023-12-20T00:57:26;2.67;;;2.47;;
26034;SDS011;13809;48.632;11.576;2023-12-20T01:02:31;2.30;;;2.10;;
26034;SDS011;13809;48.632;11.576;2023-12-20T01:07:34;2.40;;;2.20;;
26034;SDS011;13809;48.632;11.576;2023-12-20T01:12:37;2.10;;;2.00;;
26034;SDS011;13809;48.632;11.576;2023-12-20T01:17:42;2.47;;;2.10;;
26034;SDS011;13809;48.632;11.576;2023-12-20T01:22:46;1.90;;;1.80;;
26034;SDS011;13809;48.632;11.576;2023-12-20T01:27:49;1.93;;;1.83;;
26034;SDS011;13809;48.632;11.576;2023-12-20T01:32:54;2.00;;;1.80;;
26034;SDS011;13809;48.632;11.576;2023-12-20T01:37:57;1.90;;;1.80;;
26034;SDS011;13809;48.632;11.576;2023-12-20T01:43:01;1.83;;;1.73;;
26034;SDS011;13809;48.632;11.576;2023-12-20T01:48:08;2.10;;;1.90;;
26034;SDS011;13809;48.632;11.576;2023-12-20T01:53:12;1.80;;;1.70;;
26034;SDS011;13809;48.632;11.576;2023-12-20T01:58:16;2.77;;;1.67;;
26034;SDS011;13809;48.632;11.576;2023-12-20T02:03:22;1.60;;;1.50;;
26034;SDS011;13809;48.632;11.576;2023-12-20T02:08:26;1.90;;;1.80;;
26034;SDS011;13809;48.632;11.576;2023-12-20T02:13:30;1.60;;;1.50;;
26034;SDS011;13809;48.632;11.576;2023-12-20T02:18:35;1.80;;;1.60;;
26034;SDS011;13809;48.632;11.576;2023-12-20T02:23:39;1.90;;;1.80;;
26034;SDS011;13809;48.632;11.576;2023-12-20T02:28:42;1.90;;;1.80;;
26034;SDS011;13809;48.632;11.576;2023-12-20T02:33:46;1.53;;;1.43;;
26034;SDS011;13809;48.632;11.576;2023-12-20T02:38:50;1.97;;;1.80;;
26034;SDS011;13809;48.632;11.576;2023-12-20T02:43:53;2.00;;;1.80;;
26034;SDS011;13809;48.632;11.576;2023-12-20T02:48:57;1.80;;;1.70;;
26034;SDS011;13809;48.632;11.576;2023-12-20T02:54:01;1.57;;;1.47;;
26034;SDS011;13809;48.632;11.576;2023-12-20T02:59:05;1.97;;;1.80;;
26034;SDS011;13809;48.632;11.576;2023-12-20T03:04:09;1.63;;;1.23;;
26034;SDS011;13809;48.632;11.576;2023-12-20T03:09:14;1.50;;;1.40;;
26034;SDS011;13809;48.632;11.576;2023-12-20T03:14:18;1.40;;;1.30;;
26034;SDS011;13809;48.632;11.576;2023-12-20T03:19:21;2.70;;;1.57;;
26034;SDS011;13809;48.632;11.576;2023-12-20T03:24:26;1.37;;;1.27;;
26034;SDS011;13809;48.632;11.576;2023-12-20T03:29:30;2.07;;;1.50;;
26034;SDS011;13809;48.632;11.576;2023-12-20T03:34:33;1.43;;;1.33;;
26034;SDS011;13809;48.632;11.576;2023-12-20T03:39:38;1.40;;;1.30;;
26034;SDS011;13809;48.632;11.576;2023-12-20T03:44:41;1.50;;;1.40;;
26034;SDS011;13809;48.632;11.576;2023-12-20T03:49:44;1.63;;;1.10;;
26034;SDS011;13809;48.632;11.576;2023-12-20T03:54:49;1.53;;;1.30;;
26034;SDS011;13809;48.632;11.576;2023-12-20T03:59:52;1.77;;;1.47;;
26034;SDS011;13809;48.632;11.576;2023-12-20T04:04:55;1.73;;;1.63;;
26034;SDS011;13809;48.632;11.576;2023-12-20T04:10:00;2.20;;;1.50;;
26034;SDS011;13809;48.632;11.576;2023-12-20T04:15:04;2.23;;;2.00;;
26034;SDS011;13809;48.632;11.576;2023-12-20T04:20:11;1.93;;;1.80;;
26034;SDS011;13809;48.632;11.576;2023-12-20T04:25:15;1.90;;;1.70;;
26034;SDS011;13809;48.632;11.576;2023-12-20T04:30:19;3.00;;;1.90;;
26034;SDS011;13809;48.632;11.576;2023-12-20T04:35:22;2.83;;;1.77;;
26034;SDS011;13809;48.632;11.576;2023-12-20T04:40:27;1.67;;;1.57;;
26034;SDS011;13809;48.632;11.576;2023-12-20T04:45:30;2.17;;;1.50;;
26034;SDS011;13809;48.632;11.576;2023-12-20T04:50:33;1.90;;;1.70;;
26034;SDS011;13809;48.632;11.576;2023-12-20T04:55:37;1.77;;;1.67;;
26034;SDS011;13809;48.632;11.576;2023-12-20T05:00:41;1.80;;;1.70;;
26034;SDS011;13809;48.632;11.576;2023-12-20T05:05:45;2.73;;;2.20;;
26034;SDS011;13809;48.632;11.576;2023-12-20T05:10:49;2.40;;;2.20;;
26034;SDS011;13809;48.632;11.576;2023-12-20T05:15:53;2.90;;;1.83;;
26034;SDS011;13809;48.632;11.576;2023-12-20T05:20:56;1.90;;;1.80;;
26034;SDS011;13809;48.632;11.576;2023-12-20T05:26:01;2.13;;;1.93;;
26034;SDS011;13809;48.632;11.576;2023-12-20T05:31:05;2.03;;;1.83;;
26034;SDS011;13809;48.632;11.576;2023-12-20T05:36:08;1.77;;;1.67;;
26034;SDS011;13809;48.632;11.576;2023-12-20T05:41:16;1.77;;;1.67;;
26034;SDS011;13809;48.632;11.576;2023-12-20T05:46:19;2.50;;;2.30;;
26034;SDS011;13809;48.632;11.576;2023-12-20T05:51:22;2.03;;;1.90;;
26034;SDS011;13809;48.632;11.576;2023-12-20T05:56:27;1.63;;;1.53;;
26034;SDS011;13809;48.632;11.576;2023-12-20T06:01:30;1.60;;;1.50;;
26034;SDS011;13809;48.632;11.576;2023-12-20T06:06:33;1.30;;;1.30;;
26034;SDS011;13809;48.632;11.576;2023-12-20T06:11:38;1.60;;;1.50;;
26034;SDS011;13809;48.632;11.576;2023-12-20T06:16:42;1.60;;;1.50;;
26034;SDS011;13809;48.632;11.576;2023-12-20T06:21:46;2.40;;;2.20;;
26034;SDS011;13809;48.632;11.576;2023-12-20T06:26:51;2.13;;;1.80;;
26034;SDS011;13809;48.632;11.576;2023-12-20T06:31:54;1.80;;;1.70;;
26034;SDS011;13809;48.632;11.576;2023-12-20T06:36:57;2.10;;;1.60;;
26034;SDS011;13809;48.632;11.576;2023-12-20T06:42:02;1.73;;;1.63;;
26034;SDS011;13809;48.632;11.576;2023-12-20T06:47:06;2.03;;;1.50;;
26034;SDS011;13809;48.632;11.576;2023-12-20T06:52:09;1.13;;;1.13;;
26034;SDS011;13809;48.632;11.576;2023-12-20T06:57:14;1.90;;;1.50;;
26034;SDS011;13809;48.632;11.576;2023-12-20T07:02:17;2.90;;;2.47;;
26034;SDS011;13809;48.632;11.576;2023-12-20T07:07:21;1.67;;;1.57;;
26034;SDS011;13809;48.632;11.576;2023-12-20T07:12:27;1.60;;;1.50;;
26034;SDS011;13809;48.632;11.576;2023-12-20T07:17:30;2.77;;;1.80;;
26034;SDS011;13809;48.632;11.576;2023-12-20T07:22:34;3.10;;;2.20;;
26034;SDS011;13809;48.632;11.576;2023-12-20T07:27:39;2.00;;;1.90;;
26034;SDS011;13809;48.632;11.576;2023-12-20T07:32:45;1.60;;;1.50;;
26034;SDS011;13809;48.632;11.576;2023-12-20T07:37:48;1.83;;;1.70;;
26034;SDS011;13809;48.632;11.576;2023-12-20T07:42:53;2.63;;;2.43;;
26034;SDS011;13809;48.632;11.576;2023-12-20T07:47:56;2.10;;;2.00;;
26034;SDS011;13809;48.632;11.576;2023-12-20T07:52:59;2.07;;;1.67;;
26034;SDS011;13809;48.632;11.576;2023-12-20T07:58:05;1.50;;;1.40;;
26034;SDS011;13809;48.632;11.576;2023-12-20T08:03:08;1.80;;;1.70;;
26034;SDS011;13809;48.632;11.576;2023-12-20T08:08:11;1.90;;;1.80;;
26034;SDS011;13809;48.632;11.576;2023-12-20T08:13:15;1.90;;;1.80;;
26034;SDS011;13809;48.632;11.576;2023-12-20T08:18:19;1.90;;;1.80;;
26034;SDS011;13809;48.632;11.576;2023-12-20T08:23:22;1.60;;;1.50;;
26034;SDS011;13809;48.632;11.576;2023-12-20T08:28:29;1.57;;;1.47;;
26034;SDS011;13809;48.632;11.576;2023-12-20T08:33:33;1.70;;;1.60;;
26034;SDS011;13809;48.632;11.576;2023-12-20T08:38:36;1.23;;;1.17;;
26034;SDS011;13809;48.632;11.576;2023-12-20T08:43:41;1.60;;;1.50;;
26034;SDS011;13809;48.632;11.576;2023-12-20T08:48:44;1.60;;;1.50;;
26034;SDS011;13809;48.632;11.576;2023-12-20T08:53:47;2.10;;;2.00;;
26034;SDS011;13809;48.632;11.576;2023-12-20T08:58:52;2.13;;;1.93;;
26034;SDS011;13809;48.632;11.576;2023-12-20T09:03:55;1.57;;;1.47;;
26034;SDS011;13809;48.632;11.576;2023-12-20T09:08:58;1.60;;;1.50;;
26034;SDS011;13809;48.632;11.576;2023-12-20T09:14:03;1.70;;;1.60;;
26034;SDS011;13809;48.632;11.576;2023-12-20T09:19:06;3.00;;;2.37;;
26034;SDS011;13809;48.632;11.576;2023-12-20T09:24:09;1.50;;;1.40;;
26034;SDS011;13809;48.632;11.576;2023-12-20T09:29:14;1.37;;;1.27;;
26034;SDS011;13809;48.632;11.576;2023-12-20T09:34:17;1.63;;;1.53;;
26034;SDS011;13809;48.632;11.576;2023-12-20T09:39:20;2.10;;;2.00;;
26034;SDS011;13809;48.632;11.576;2023-12-20T09:44:26;1.30;;;1.30;;
26034;SDS011;13809;48.632;11.576;2023-12-20T09:49:29;1.50;;;1.40;;
26034;SDS011;13809;48.632;11.576;2023-12-20T09:54:33;2.00;;;1.90;;
26034;SDS011;13809;48.632;11.576;2023-12-20T09:59:38;1.90;;;1.80;;
26034;SDS011;13809;48.632;11.576;2023-12-20T10:04:41;2.07;;;1.97;;
26034;SDS011;13809;48.632;11.576;2023-12-20T10:09:51;1.60;;;1.50;;
26034;SDS011;13809;48.632;11.576;2023-12-20T10:14:58;1.50;;;1.40;;
26034;SDS011;13809;48.632;11.576;2023-12-20T10:20:02;1.23;;;1.23;;
26034;SDS011;13809;48.632;11.576;2023-12-20T10:25:11;1.57;;;1.40;;
26034;SDS011;13809;48.632;11.576;2023-12-20T10:30:16;1.80;;;1.70;;
26034;SDS011;13809;48.632;11.576;2023-12-20T10:35:20;2.27;;;1.40;;
26034;SDS011;13809;48.632;11.576;2023-12-20T10:40:23;1.30;;;1.30;;
26034;SDS011;13809;48.632;11.576;2023-12-20T10:45:32;1.50;;;1.40;;
26034;SDS011;13809;48.632;11.576;2023-12-20T10:50:36;1.60;;;1.50;;
26034;SDS011;13809;48.632;11.576;2023-12-20T10:55:41;1.40;;;1.30;;
26034;SDS011;13809;48.632;11.576;2023-12-20T11:00:47;1.40;;;1.30;;
26034;SDS011;13809;48.632;11.576;2023-12-20T11:05:53;1.30;;;1.20;;
26034;SDS011;13809;48.632;11.576;2023-12-20T11:11:04;1.20;;;1.10;;
26034;SDS011;13809;48.632;11.576;2023-12-20T11:16:14;1.00;;;1.00;;
26034;SDS011;13809;48.632;11.576;2023-12-20T11:21:17;1.63;;;1.07;;
26034;SDS011;13809;48.632;11.576;2023-12-20T11:26:22;1.10;;;1.10;;
26034;SDS011;13809;48.632;11.576;2023-12-20T11:31:31;1.30;;;1.20;;
26034;SDS011;13809;48.632;11.576;2023-12-20T11:36:43;1.40;;;1.30;;
26034;SDS011;13809;48.632;11.576;2023-12-20T11:41:46;1.47;;;1.10;;
26034;SDS011;13809;48.632;11.576;2023-12-20T11:46:52;1.20;;;1.20;;
26034;SDS011;13809;48.632;11.576;2023-12-20T11:51:57;1.37;;;1.27;;
26034;SDS011;13809;48.632;11.576;2023-12-20T11:57:02;1.17;;;1.10;;
26034;SDS011;13809;48.632;11.576;2023-12-20T12:02:06;1.40;;;1.30;;
26034;SDS011;13809;48.632;11.576;2023-12-20T12:07:10;1.20;;;1.10;;
26034;SDS011;13809;48.632;11.576;2023-12-20T12:12:13;1.50;;;1.37;;
26034;SDS011;13809;48.632;11.576;2023-12-20T12:17:18;1.13;;;1.10;;
26034;SDS011;13809;48.632;11.576;2023-12-20T12:22:21;1.50;;;1.40;;
26034;SDS011;13809;48.632;11.576;2023-12-20T12:27:28;1.50;;;1.40;;
26034;SDS011;13809;48.632;11.576;2023-12-20T12:32:33;1.47;;;1.37;;
26034;SDS011;13809;48.632;11.576;2023-12-20T12:37:37;2.07;;;1.40;;
26034;SDS011;13809;48.632;11.576;2023-12-20T12:42:42;1.60;;;1.50;;
26034;SDS011;13809;48.632;11.576;2023-12-20T12:47:48;1.40;;;1.30;;
26034;SDS011;13809;48.632;11.576;2023-12-20T12:52:51;2.90;;;1.60;;
26034;SDS011;13809;48.632;11.576;2023-12-20T12:57:55;2.33;;;1.47;;
26034;SDS011;13809;48.632;11.576;2023-12-20T13:02:59;1.73;;;1.37;;
26034;SDS011;13809;48.632;11.576;2023-12-20T13:08:03;3.10;;;1.50;;
26034;SDS011;13809;48.632;11.576;2023-12-20T13:13:07;3.00;;;1.27;;
26034;SDS011;13809;48.632;11.576;2023-12-20T13:18:11;1.60;;;1.30;;
26034;SDS011;13809;48.632;11.576;2023-12-20T13:23:15;4.13;;;1.33;;
26034;SDS011;13809;48.632;11.576;2023-12-20T13:28:19;3.03;;;1.20;;
26034;SDS011;13809;48.632;11.576;2023-12-20T13:33:24;3.80;;;1.40;;
26034;SDS011;13809;48.632;11.576;2023-12-20T13:38:27;3.13;;;1.20;;
26034;SDS011;13809;48.632;11.576;2023-12-20T13:43:31;4.37;;;2.30;;
26034;SDS011;13809;48.632;11.576;2023-12-20T13:48:35;2.80;;;1.47;;
26034;SDS011;13809;48.632;11.576;2023-12-20T13:53:39;5.23;;;1.70;;
26034;SDS011;13809;48.632;11.576;2023-12-20T13:58:42;1.70;;;1.40;;
26034;SDS011;13809;48.632;11.576;2023-12-20T14:03:49;2.17;;;1.30;;
26034;SDS011;13809;48.632;11.576;2023-12-20T14:08:53;4.60;;;1.90;;
26034;SDS011;13809;48.632;11.576;2023-12-20T14:13:56;4.07;;;1.40;;
26034;SDS011;13809;48.632;11.576;2023-12-20T14:19:01;3.73;;;1.30;;
26034;SDS011;13809;48.632;11.576;2023-12-20T14:24:06;3.17;;;1.33;;
26034;SDS011;13809;48.632;11.576;2023-12-20T14:29:09;2.67;;;1.47;;
26034;SDS011;13809;48.632;11.576;2023-12-20T14:34:13;2.50;;;1.23;;
26034;SDS011;13809;48.632;11.576;2023-12-20T14:39:17;1.83;;;1.37;;
26034;SDS011;13809;48.632;11.576;2023-12-20T14:44:20;1.20;;;1.10;;
26034;SDS011;13809;48.632;11.576;2023-12-20T14:49:24;2.43;;;1.20;;
26034;SDS011;13809;48.632;11.576;2023-12-20T14:54:28;2.67;;;1.20;;
26034;SDS011;13809;48.632;11.576;2023-12-20T14:59:31;2.97;;;1.40;;
26034;SDS011;13809;48.632;11.576;2023-12-20T15:04:36;2.67;;;1.50;;
26034;SDS011;13809;48.632;11.576;2023-12-20T15:09:39;2.13;;;1.33;;
26034;SDS011;13809;48.632;11.576;2023-12-20T15:14:47;1.60;;;1.27;;
26034;SDS011;13809;48.632;11.576;2023-12-20T15:19:51;2.83;;;1.37;;
26034;SDS011;13809;48.632;11.576;2023-12-20T15:24:55;2.63;;;1.30;;
26034;SDS011;13809;48.632;11.576;2023-12-20T15:29:58;4.53;;;1.03;;
26034;SDS011;13809;48.632;11.576;2023-12-20T15:35:04;4.10;;;0.90;;
26034;SDS011;13809;48.632;11.576;2023-12-20T15:40:09;2.77;;;1.20;;
26034;SDS011;13809;48.632;11.576;2023-12-20T15:45:13;2.80;;;1.30;;
26034;SDS011;13809;48.632;11.576;2023-12-20T15:50:18;2.67;;;1.10;;
26034;SDS011;13809;48.632;11.576;2023-12-20T15:55:21;2.60;;;1.20;;
26034;SDS011;13809;48.632;11.576;2023-12-20T16:00:25;1.70;;;1.37;;
26034;SDS011;13809;48.632;11.576;2023-12-20T16:05:29;2.47;;;1.30;;
26034;SDS011;13809;48.632;11.576;2023-12-20T16:10:32;1.80;;;1.50;;
26034;SDS011;13809;48.632;11.576;2023-12-20T16:15:36;4.47;;;1.50;;
26034;SDS011;13809;48.632;11.576;2023-12-20T16:20:41;1.53;;;1.10;;
26034;SDS011;13809;48.632;11.576;2023-12-20T16:25:44;2.60;;;1.60;;
26034;SDS011;13809;48.632;11.576;2023-12-20T16:30:47;2.30;;;1.60;;
26034;SDS011;13809;48.632;11.576;2023-12-20T16:35:52;3.00;;;1.60;;
26034;SDS011;13809;48.632;11.576;2023-12-20T16:40:58;2.67;;;1.40;;
26034;SDS011;13809;48.632;11.576;2023-12-20T16:46:02;3.17;;;1.43;;
26034;SDS011;13809;48.632;11.576;2023-12-20T16:51:08;3.40;;;1.77;;
26034;SDS011;13809;48.632;11.576;2023-12-20T16:56:11;4.00;;;2.43;;
26034;SDS011;13809;48.632;11.576;2023-12-20T17:01:14;2.97;;;2.23;;
26034;SDS011;13809;48.632;11.576;2023-12-20T17:06:19;5.27;;;2.50;;
26034;SDS011;13809;48.632;11.576;2023-12-20T17:11:24;3.13;;;1.97;;
26034;SDS011;13809;48.632;11.576;2023-12-20T17:16:27;3.03;;;1.87;;
26034;SDS011;13809;48.632;11.576;2023-12-20T17:21:32;2.50;;;1.80;;
26034;SDS011;13809;48.632;11.576;2023-12-20T17:26:35;2.93;;;1.67;;
26034;SDS011;13809;48.632;11.576;2023-12-20T17:31:38;4.50;;;2.47;;
26034;SDS011;13809;48.632;11.576;2023-12-20T17:36:45;2.10;;;1.90;;
26034;SDS011;13809;48.632;11.576;2023-12-20T17:41:48;3.03;;;1.93;;
26034;SDS011;13809;48.632;11.576;2023-12-20T17:46:51;3.17;;;1.80;;
26034;SDS011;13809;48.632;11.576;2023-12-20T17:51:57;2.53;;;1.60;;
26034;SDS011;13809;48.632;11.576;2023-12-20T17:57:00;3.03;;;1.73;;
26034;SDS011;13809;48.632;11.576;2023-12-20T18:02:04;2.30;;;1.70;;
26034;SDS011;13809;48.632;11.576;2023-12-20T18:07:09;2.67;;;1.57;;
26034;SDS011;13809;48.632;11.576;2023-12-20T18:12:12;2.40;;;1.70;;
26034;SDS011;13809;48.632;11.576;2023-12-20T18:17:16;1.50;;;1.30;;
26034;SDS011;13809;48.632;11.576;2023-12-20T18:22:21;2.37;;;1.40;;
26034;SDS011;13809;48.632;11.576;2023-12-20T18:27:24;2.97;;;1.60;;
26034;SDS011;13809;48.632;11.576;2023-12-20T18:32:27;3.73;;;1.40;;
26034;SDS011;13809;48.632;11.576;2023-12-20T18:37:32;2.07;;;1.33;;
26034;SDS011;13809;48.632;11.576;2023-12-20T18:42:36;2.67;;;1.37;;
26034;SDS011;13809;48.632;11.576;2023-12-20T18:47:39;3.70;;;1.87;;
26034;SDS011;13809;48.632;11.576;2023-12-20T18:52:44;2.20;;;1.30;;
26034;SDS011;13809;48.632;11.576;2023-12-20T18:57:47;1.90;;;1.27;;
26034;SDS011;13809;48.632;11.576;2023-12-20T19:02:50;2.57;;;1.40;;
26034;SDS011;13809;48.632;11.576;2023-12-20T19:07:57;1.80;;;1.30;;
26034;SDS011;13809;48.632;11.576;2023-12-20T19:13:00;2.17;;;1.60;;
26034;SDS011;13809;48.632;11.576;2023-12-20T19:18:03;2.00;;;1.40;;
26034;SDS011;13809;48.632;11.576;2023-12-20T19:23:08;2.10;;;1.43;;
26034;SDS011;13809;48.632;11.576;2023-12-20T19:28:11;1.90;;;1.47;;
26034;SDS011;13809;48.632;11.576;2023-12-20T19:33:15;3.23;;;1.43;;
26034;SDS011;13809;48.632;11.576;2023-12-20T19:38:19;3.10;;;1.60;;
26034;SDS011;13809;48.632;11.576;2023-12-20T19:43:23;2.17;;;1.30;;
26034;SDS011;13809;48.632;11.576;2023-12-20T19:48:26;2.70;;;1.40;;
26034;SDS011;13809;48.632;11.576;2023-12-20T19:53:31;2.10;;;1.60;;
26034;SDS011;13809;48.632;11.576;2023-12-20T19:58:34;3.50;;;1.80;;
26034;SDS011;13809;48.632;11.576;2023-12-20T20:03:37;3.07;;;1.70;;
26034;SDS011;13809;48.632;11.576;2023-12-20T20:08:42;3.57;;;2.20;;
26034;SDS011;13809;48.632;11.576;2023-12-20T20:13:45;3.43;;;1.87;;
26034;SDS011;13809;48.632;11.576;2023-12-20T20:18:49;1.93;;;1.60;;
26034;SDS011;13809;48.632;11.576;2023-12-20T20:23:54;2.77;;;1.57;;
26034;SDS011;13809;48.632;11.576;2023-12-20T20:28:58;2.27;;;1.50;;
26034;SDS011;13809;48.632;11.576;2023-12-20T20:34:01;4.83;;;1.50;;
26034;SDS011;13809;48.632;11.576;2023-12-20T20:39:05;2.07;;;1.50;;
26034;SDS011;13809;48.632;11.576;2023-12-20T20:44:09;1.93;;;1.40;;
26034;SDS011;13809;48.632;11.576;2023-12-20T20:49:12;2.77;;;1.43;;
26034;SDS011;13809;48.632;11.576;2023-12-20T20:54:19;2.47;;;1.37;;
26034;SDS011;13809;48.632;11.576;2023-12-20T20:59:22;3.03;;;1.60;;
26034;SDS011;13809;48.632;11.576;2023-12-20T21:04:26;3.87;;;1.97;;
26034;SDS011;13809;48.632;11.576;2023-12-20T21:09:31;2.20;;;1.77;;
26034;SDS011;13809;48.632;11.576;2023-12-20T21:14:34;2.07;;;1.50;;
26034;SDS011;13809;48.632;11.576;2023-12-20T21:19:37;2.87;;;1.60;;
26034;SDS011;13809;48.632;11.576;2023-12-20T21:24:43;2.70;;;1.63;;
26034;SDS011;13809;48.632;11.576;2023-12-20T21:29:46;2.27;;;1.60;;
26034;SDS011;13809;48.632;11.576;2023-12-20T21:34:49;2.13;;;1.50;;
26034;SDS011;13809;48.632;11.576;2023-12-20T21:39:53;2.27;;;1.30;;
26034;SDS011;13809;48.632;11.576;2023-12-20T21:44:57;3.13;;;1.50;;
26034;SDS011;13809;48.632;11.576;2023-12-20T21:50:00;3.40;;;1.47;;
26034;SDS011;13809;48.632;11.576;2023-12-20T21:55:05;1.90;;;1.57;;
26034;SDS011;13809;48.632;11.576;2023-12-20T22:00:10;2.67;;;1.50;;
26034;SDS011;13809;48.632;11.576;2023-12-20T22:05:13;2.70;;;1.57;;
26034;SDS011;13809;48.632;11.576;2023-12-20T22:10:19;3.43;;;1.57;;
26034;SDS011;13809;48.632;11.576;2023-12-20T22:15:22;2.37;;;1.60;;
26034;SDS011;13809;48.632;11.576;2023-12-20T22:20:26;2.70;;;1.70;;
26034;SDS011;13809;48.632;11.576;2023-12-20T22:25:32;2.23;;;1.70;;
26034;SDS011;13809;48.632;11.576;2023-12-20T22:30:35;3.87;;;1.97;;
26034;SDS011;13809;48.632;11.576;2023-12-20T22:35:39;3.30;;;1.60;;
26034;SDS011;13809;48.632;11.576;2023-12-20T22:40:46;2.63;;;1.57;;
26034;SDS011;13809;48.632;11.576;2023-12-20T22:45:49;3.40;;;1.90;;
26034;SDS011;13809;48.632;11.576;2023-12-20T22:50:52;2.07;;;1.40;;
26034;SDS011;13809;48.632;11.576;2023-12-20T22:55:57;3.03;;;1.40;;
26034;SDS011;13809;48.632;11.576;2023-12-20T23:01:00;1.90;;;1.23;;
26034;SDS011;13809;48.632;11.576;2023-12-20T23:06:04;2.20;;;1.20;;
26034;SDS011;13809;48.632;11.576;2023-12-20T23:11:09;2.33;;;1.13;;
26034;SDS011;13809;48.632;11.576;2023-12-20T23:16:12;1.63;;;1.30;;
26034;SDS011;13809;48.632;11.576;2023-12-20T23:21:16;2.10;;;1.20;;
26034;SDS011;13809;48.632;11.576;2023-12-20T23:26:20;1.70;;;1.10;;
26034;SDS011;13809;48.632;11.576;2023-12-20T23:31:23;1.90;;;1.10;;
26034;SDS011;13809;48.632;11.576;2023-12-20T23:36:27;1.80;;;1.20;;
26034;SDS011;13809;48.632;11.576;2023-12-20T23:41:32;2.13;;;1.20;;
26034;SDS011;13809;48.632;11.576;2023-12-20T23:46:35;1.30;;;0.90;;
26034;SDS011;13809;48.632;11.576;2023-12-20T23:51:38;2.20;;;1.10;;
26034;SDS011;13809;48.632;11.576;2023-12-20T23:56:45;1.67;;;0.80;;
